Time;durP1;ratioP1;P1;durP2;ratioP2;P2;SDS_P1;SDS_P2;PMS_P1;PMS_P2;Temp;Humidity;BMP_temperature;BMP_pressure;BME280_temperature;BME280_humidity;BME280_pressure;Samples;Min_cycle;Max_cycle;Signal;HPM_P1;HPM_P2
2021/05/03 00:02:30;;;;;;;1.68;1.50;;;;;;;19.31;43.54;100893.03;;;;-53
2021/05/03 00:05:30;;;;;;;1.58;1.48;;;;;;;19.29;43.61;100897.39;;;;-53
2021/05/03 00:08:30;;;;;;;1.43;1.33;;;;;;;19.28;43.62;100895.20;;;;-57
2021/05/03 00:11:30;;;;;;;1.42;1.30;;;;;;;19.26;43.64;100900.05;;;;-60
2021/05/03 00:14:30;;;;;;;1.50;1.40;;;;;;;19.25;43.61;100901.89;;;;-59
2021/05/03 00:17:30;;;;;;;1.97;1.47;;;;;;;19.25;43.64;100907.73;;;;-51
2021/05/03 00:20:30;;;;;;;1.52;1.42;;;;;;;19.24;43.62;100911.48;;;;-52
2021/05/03 00:23:30;;;;;;;1.50;1.40;;;;;;;19.23;43.64;100911.20;;;;-51
2021/05/03 00:26:30;;;;;;;1.43;1.33;;;;;;;19.22;43.64;100907.14;;;;-52
2021/05/03 00:29:30;;;;;;;1.53;1.43;;;;;;;19.20;43.63;100908.57;;;;-52
2021/05/03 00:32:30;;;;;;;1.50;1.40;;;;;;;19.19;43.66;100906.02;;;;-51
2021/05/03 00:35:30;;;;;;;1.64;1.54;;;;;;;19.17;43.65;100900.74;;;;-51
2021/05/03 00:38:31;;;;;;;1.67;1.45;;;;;;;19.17;43.63;100904.37;;;;-52
2021/05/03 00:41:30;;;;;;;1.60;1.50;;;;;;;19.16;43.64;100903.39;;;;-51
2021/05/03 00:44:30;;;;;;;1.57;1.47;;;;;;;19.14;43.69;100904.02;;;;-53
2021/05/03 00:47:30;;;;;;;1.41;1.31;;;;;;;19.13;43.67;100901.46;;;;-57
2021/05/03 00:50:30;;;;;;;1.49;1.39;;;;;;;19.12;43.65;100905.52;;;;-57
2021/05/03 00:53:30;;;;;;;1.77;1.50;;;;;;;19.11;43.66;100907.69;;;;-53
2021/05/03 00:56:30;;;;;;;1.52;1.42;;;;;;;19.10;43.67;100914.59;;;;-53
2021/05/03 00:59:30;;;;;;;1.87;1.50;;;;;;;19.09;43.67;100911.87;;;;-53
2021/05/03 01:02:30;;;;;;;1.52;1.42;;;;;;;19.08;43.66;100921.06;;;;-52
2021/05/03 01:05:30;;;;;;;1.50;1.40;;;;;;;19.07;43.69;100922.28;;;;-57
2021/05/03 01:08:30;;;;;;;1.61;1.51;;;;;;;19.06;43.70;100920.45;;;;-57
2021/05/03 01:11:30;;;;;;;1.60;1.50;;;;;;;19.05;43.67;100918.48;;;;-57
2021/05/03 01:14:30;;;;;;;1.50;1.40;;;;;;;19.05;43.67;100922.41;;;;-53
2021/05/03 01:17:30;;;;;;;1.53;1.43;;;;;;;19.04;43.65;100925.63;;;;-52
2021/05/03 01:20:30;;;;;;;1.47;1.37;;;;;;;19.03;43.72;100926.84;;;;-52
2021/05/03 01:23:30;;;;;;;1.70;1.60;;;;;;;19.02;43.69;100927.63;;;;-57
2021/05/03 01:26:30;;;;;;;1.81;1.63;;;;;;;19.01;43.69;100928.03;;;;-51
2021/05/03 01:29:30;;;;;;;1.69;1.59;;;;;;;19.01;43.67;100928.41;;;;-57
2021/05/03 01:32:30;;;;;;;2.32;1.50;;;;;;;19.00;43.66;100928.48;;;;-51
2021/05/03 01:35:30;;;;;;;1.64;1.54;;;;;;;18.98;43.65;100928.20;;;;-51
2021/05/03 01:38:30;;;;;;;1.66;1.56;;;;;;;18.97;43.68;100926.66;;;;-59
2021/05/03 01:41:30;;;;;;;2.35;1.52;;;;;;;18.96;43.69;100922.66;;;;-58
2021/05/03 01:44:30;;;;;;;1.93;1.41;;;;;;;18.96;43.63;100927.04;;;;-58
2021/05/03 01:47:30;;;;;;;1.61;1.51;;;;;;;18.94;43.71;100924.16;;;;-53
2021/05/03 01:50:30;;;;;;;1.70;1.60;;;;;;;18.94;43.67;100928.95;;;;-53
2021/05/03 01:53:30;;;;;;;1.50;1.40;;;;;;;18.93;43.70;100924.33;;;;-59
2021/05/03 01:56:30;;;;;;;1.60;1.50;;;;;;;18.92;43.75;100924.53;;;;-57
2021/05/03 01:59:33;;;;;;;1.64;1.54;;;;;;;18.92;43.72;100925.10;;;;-59
2021/05/03 02:02:30;;;;;;;1.57;1.47;;;;;;;18.90;43.71;100925.48;;;;-52
2021/05/03 02:05:30;;;;;;;1.50;1.40;;;;;;;18.89;43.73;100923.37;;;;-52
2021/05/03 02:08:30;;;;;;;1.65;1.55;;;;;;;18.89;43.73;100924.50;;;;-52
2021/05/03 02:11:30;;;;;;;1.69;1.59;;;;;;;18.88;43.75;100923.61;;;;-52
2021/05/03 02:14:30;;;;;;;1.55;1.45;;;;;;;18.88;43.72;100924.47;;;;-51
2021/05/03 02:17:30;;;;;;;1.57;1.47;;;;;;;18.87;43.71;100925.77;;;;-53
2021/05/03 02:20:31;;;;;;;1.82;1.60;;;;;;;18.86;43.72;100929.91;;;;-53
2021/05/03 02:23:30;;;;;;;1.67;1.56;;;;;;;18.85;43.74;100929.39;;;;-53
2021/05/03 02:26:30;;;;;;;1.62;1.52;;;;;;;18.84;43.73;100929.71;;;;-53
2021/05/03 02:29:30;;;;;;;1.61;1.51;;;;;;;18.83;43.75;100928.55;;;;-53
2021/05/03 02:32:30;;;;;;;1.70;1.60;;;;;;;18.83;43.73;100928.55;;;;-60
2021/05/03 02:35:33;;;;;;;1.80;1.70;;;;;;;18.82;43.77;100923.07;;;;-58
2021/05/03 02:38:31;;;;;;;1.70;1.60;;;;;;;18.81;43.80;100922.58;;;;-59
2021/05/03 02:41:30;;;;;;;1.91;1.73;;;;;;;18.81;43.77;100928.67;;;;-53
2021/05/03 02:44:30;;;;;;;1.55;1.45;;;;;;;18.80;43.76;100929.13;;;;-53
2021/05/03 02:47:30;;;;;;;1.76;1.60;;;;;;;18.80;43.81;100928.56;;;;-59
2021/05/03 02:50:30;;;;;;;1.71;1.61;;;;;;;18.78;43.76;100930.55;;;;-59
2021/05/03 02:53:30;;;;;;;1.80;1.63;;;;;;;18.77;43.80;100932.88;;;;-52
2021/05/03 02:56:30;;;;;;;1.70;1.60;;;;;;;18.77;43.78;100936.13;;;;-53
2021/05/03 02:59:30;;;;;;;1.75;1.64;;;;;;;18.77;43.82;100943.02;;;;-53
2021/05/03 03:02:30;;;;;;;1.79;1.69;;;;;;;18.76;43.81;100941.37;;;;-53
2021/05/03 03:05:30;;;;;;;1.70;1.60;;;;;;;18.76;43.79;100947.70;;;;-51
2021/05/03 03:08:30;;;;;;;1.67;1.57;;;;;;;18.75;43.83;100947.21;;;;-57
2021/05/03 03:11:30;;;;;;;1.70;1.60;;;;;;;18.74;43.81;100951.02;;;;-57
2021/05/03 03:14:30;;;;;;;1.72;1.62;;;;;;;18.73;43.81;100950.09;;;;-57
2021/05/03 03:17:30;;;;;;;1.68;1.58;;;;;;;18.73;43.84;100953.02;;;;-59
2021/05/03 03:20:30;;;;;;;1.79;1.67;;;;;;;18.71;43.82;100954.37;;;;-57
2021/05/03 03:23:30;;;;;;;1.79;1.69;;;;;;;18.71;43.81;100955.09;;;;-51
2021/05/03 03:26:30;;;;;;;1.80;1.70;;;;;;;18.71;43.81;100957.05;;;;-51
2021/05/03 03:29:30;;;;;;;1.76;1.61;;;;;;;18.70;43.79;100961.34;;;;-53
2021/05/03 03:32:30;;;;;;;1.97;1.77;;;;;;;18.69;43.83;100957.73;;;;-52
2021/05/03 03:35:30;;;;;;;1.74;1.64;;;;;;;18.68;43.85;100958.30;;;;-53
2021/05/03 03:38:30;;;;;;;1.93;1.74;;;;;;;18.68;43.86;100962.61;;;;-56
2021/05/03 03:41:30;;;;;;;1.80;1.70;;;;;;;18.67;43.86;100964.28;;;;-57
2021/05/03 03:44:30;;;;;;;1.86;1.76;;;;;;;18.67;43.84;100968.25;;;;-57
2021/05/03 03:47:30;;;;;;;1.81;1.70;;;;;;;18.66;43.85;100967.44;;;;-51
2021/05/03 03:50:30;;;;;;;1.81;1.71;;;;;;;18.65;43.86;100966.76;;;;-56
2021/05/03 03:53:30;;;;;;;1.76;1.66;;;;;;;18.64;43.87;100968.63;;;;-53
2021/05/03 03:56:30;;;;;;;1.79;1.69;;;;;;;18.64;43.92;100971.06;;;;-59
2021/05/03 03:59:33;;;;;;;1.99;1.79;;;;;;;18.63;43.87;100973.13;;;;-52
2021/05/03 04:02:30;;;;;;;1.71;1.60;;;;;;;18.62;43.87;100975.00;;;;-53
2021/05/03 04:05:41;;;;;;;1.84;1.74;;;;;;;18.62;43.88;100979.63;;;;-56
2021/05/03 04:08:39;;;;;;;2.13;1.70;;;;;;;18.62;43.87;100978.90;;;;-56
2021/05/03 04:11:46;;;;;;;1.83;1.70;;;;;;;18.61;43.90;100977.00;;;;-57
2021/05/03 04:22:58;;;;;;;1.79;1.65;;;;;;;18.59;43.91;100987.92;;;;-52
2021/05/03 04:25:35;;;;;;;1.90;1.80;;;;;;;18.59;43.94;100996.03;;;;-56
2021/05/03 04:28:30;;;;;;;1.85;1.75;;;;;;;18.58;43.91;100997.25;;;;-57
2021/05/03 04:31:30;;;;;;;2.17;1.97;;;;;;;18.57;43.95;100998.14;;;;-58
2021/05/03 04:34:30;;;;;;;1.91;1.81;;;;;;;18.57;43.92;101000.17;;;;-59
2021/05/03 04:37:30;;;;;;;1.79;1.69;;;;;;;18.57;43.93;101006.80;;;;-57
2021/05/03 04:40:30;;;;;;;1.79;1.67;;;;;;;18.56;43.94;101009.38;;;;-53
2021/05/03 04:43:30;;;;;;;1.82;1.72;;;;;;;18.56;43.94;101013.69;;;;-51
2021/05/03 04:46:30;;;;;;;1.98;1.78;;;;;;;18.55;43.97;101009.14;;;;-51
2021/05/03 04:49:30;;;;;;;1.80;1.70;;;;;;;18.55;43.97;101008.62;;;;-57
2021/05/03 04:52:30;;;;;;;1.87;1.77;;;;;;;18.54;43.97;101010.89;;;;-57
2021/05/03 04:55:30;;;;;;;2.00;1.83;;;;;;;18.54;43.94;101022.01;;;;-56
2021/05/03 04:58:30;;;;;;;1.79;1.69;;;;;;;18.53;43.93;101026.14;;;;-57
2021/05/03 05:01:30;;;;;;;2.10;1.90;;;;;;;18.52;43.96;101027.41;;;;-52
2021/05/03 05:04:30;;;;;;;1.94;1.81;;;;;;;18.52;43.96;101017.66;;;;-59
2021/05/03 05:07:30;;;;;;;1.81;1.71;;;;;;;18.51;43.97;101014.91;;;;-59
2021/05/03 05:10:30;;;;;;;2.30;1.80;;;;;;;18.51;43.99;101012.30;;;;-57
2021/05/03 05:13:30;;;;;;;2.03;1.74;;;;;;;18.50;43.96;101013.89;;;;-56
2021/05/03 05:16:30;;;;;;;6.27;4.96;;;;;;;18.39;43.25;101024.56;;;;-48
2021/05/03 05:19:30;;;;;;;6.32;5.72;;;;;;;18.14;42.85;101028.52;;;;-48
2021/05/03 05:22:30;;;;;;;7.01;6.30;;;;;;;17.94;42.88;101031.81;;;;-47
2021/05/03 05:25:30;;;;;;;7.60;5.62;;;;;;;18.05;43.28;101030.50;;;;-49
2021/05/03 05:28:30;;;;;;;5.44;4.78;;;;;;;18.14;43.37;101033.38;;;;-50
2021/05/03 05:31:30;;;;;;;5.16;4.31;;;;;;;18.20;43.48;101041.95;;;;-52
2021/05/03 05:34:30;;;;;;;4.57;3.99;;;;;;;18.26;43.53;101042.65;;;;-52
2021/05/03 05:37:30;;;;;;;4.95;3.66;;;;;;;18.30;43.51;101042.41;;;;-52
2021/05/03 05:40:30;;;;;;;3.70;3.40;;;;;;;18.35;43.59;101041.69;;;;-51
2021/05/03 05:43:30;;;;;;;3.62;3.21;;;;;;;18.40;43.65;101039.34;;;;-49
2021/05/03 05:46:30;;;;;;;3.24;2.93;;;;;;;18.44;43.63;101037.88;;;;-49
2021/05/03 05:49:30;;;;;;;3.77;2.90;;;;;;;18.48;43.67;101043.48;;;;-52
2021/05/03 05:52:30;;;;;;;2.94;2.73;;;;;;;18.52;43.59;101044.78;;;;-50
2021/05/03 05:55:30;;;;;;;3.30;2.75;;;;;;;18.58;43.71;101048.88;;;;-52
2021/05/03 05:58:32;;;;;;;2.64;2.44;;;;;;;18.62;43.72;101054.39;;;;-52
2021/05/03 06:01:30;;;;;;;2.71;2.51;;;;;;;18.65;43.75;101056.47;;;;-49
2021/05/03 06:04:32;;;;;;;2.76;2.53;;;;;;;18.68;43.71;101060.11;;;;-49
2021/05/03 06:07:30;;;;;;;2.98;2.49;;;;;;;18.72;43.73;101061.81;;;;-50
2021/05/03 06:10:30;;;;;;;2.59;2.39;;;;;;;18.73;43.73;101064.66;;;;-49
2021/05/03 06:13:30;;;;;;;2.69;2.49;;;;;;;18.76;43.75;101066.89;;;;-49
2021/05/03 06:16:30;;;;;;;3.50;2.69;;;;;;;18.78;43.77;101064.37;;;;-49
2021/05/03 06:19:30;;;;;;;2.95;2.45;;;;;;;18.79;43.78;101065.38;;;;-50
2021/05/03 06:22:31;;;;;;;2.93;2.26;;;;;;;18.81;43.79;101063.14;;;;-54
2021/05/03 06:25:30;;;;;;;2.50;2.30;;;;;;;18.82;43.82;101066.42;;;;-49
2021/05/03 06:28:30;;;;;;;2.43;2.23;;;;;;;18.84;43.81;101067.98;;;;-49
2021/05/03 06:31:31;;;;;;;2.89;2.21;;;;;;;18.84;43.81;101070.36;;;;-53
2021/05/03 06:34:31;;;;;;;2.55;2.35;;;;;;;18.85;43.75;101067.03;;;;-49
2021/05/03 06:37:30;;;;;;;2.27;2.07;;;;;;;18.86;43.80;101068.34;;;;-53
2021/05/03 06:40:30;;;;;;;2.51;2.31;;;;;;;18.85;43.80;101066.39;;;;-50
2021/05/03 06:43:30;;;;;;;2.39;2.19;;;;;;;18.87;43.79;101065.94;;;;-49
2021/05/03 06:46:30;;;;;;;2.40;2.20;;;;;;;18.86;43.75;101068.83;;;;-54
2021/05/03 06:49:30;;;;;;;2.21;1.98;;;;;;;18.87;43.75;101073.98;;;;-54
2021/05/03 06:52:30;;;;;;;2.28;2.08;;;;;;;18.87;43.76;101073.66;;;;-49
2021/05/03 06:55:30;;;;;;;2.38;2.18;;;;;;;18.87;43.72;101074.79;;;;-55
2021/05/03 06:58:30;;;;;;;2.27;2.05;;;;;;;18.88;43.70;101075.93;;;;-49
2021/05/03 07:01:30;;;;;;;2.83;2.27;;;;;;;18.88;43.70;101079.09;;;;-52
2021/05/03 07:04:30;;;;;;;2.35;2.12;;;;;;;18.88;43.65;101078.69;;;;-49
2021/05/03 07:07:30;;;;;;;2.10;1.90;;;;;;;18.89;43.65;101080.43;;;;-49
2021/05/03 07:10:30;;;;;;;2.21;2.01;;;;;;;18.89;43.64;101077.51;;;;-49
2021/05/03 07:13:30;;;;;;;2.47;2.27;;;;;;;18.89;43.63;101082.78;;;;-50
2021/05/03 07:16:30;;;;;;;2.25;2.05;;;;;;;18.88;43.63;101080.31;;;;-49
2021/05/03 07:19:30;;;;;;;2.84;2.10;;;;;;;18.88;43.64;101083.16;;;;-49
2021/05/03 07:22:30;;;;;;;2.39;2.08;;;;;;;18.88;43.63;101085.75;;;;-49
2021/05/03 07:25:30;;;;;;;2.08;1.88;;;;;;;18.87;43.63;101083.23;;;;-50
2021/05/03 07:28:30;;;;;;;2.14;1.94;;;;;;;18.88;43.62;101083.48;;;;-49
2021/05/03 07:31:30;;;;;;;2.20;2.00;;;;;;;18.87;43.64;101082.67;;;;-52
2021/05/03 07:34:30;;;;;;;2.01;1.91;;;;;;;18.87;43.60;101081.69;;;;-52
2021/05/03 07:37:30;;;;;;;2.07;1.97;;;;;;;18.87;43.63;101076.33;;;;-52
2021/05/03 07:40:30;;;;;;;2.02;1.89;;;;;;;18.86;43.64;101080.84;;;;-52
2021/05/03 07:43:30;;;;;;;2.09;1.93;;;;;;;18.86;43.59;101077.44;;;;-49
2021/05/03 07:46:30;;;;;;;2.07;1.94;;;;;;;18.85;43.64;101077.59;;;;-54
2021/05/03 07:49:30;;;;;;;2.33;1.99;;;;;;;18.86;44.04;101074.52;;;;-54
2021/05/03 07:52:30;;;;;;;3.16;2.07;;;;;;;18.88;44.16;101075.20;;;;-56
2021/05/03 07:55:30;;;;;;;2.37;2.08;;;;;;;18.90;44.34;101076.70;;;;-57
2021/05/03 07:58:30;;;;;;;2.15;1.95;;;;;;;18.92;44.44;101070.41;;;;-56
2021/05/03 08:01:30;;;;;;;2.59;1.99;;;;;;;18.96;44.28;101072.27;;;;-58
2021/05/03 08:04:30;;;;;;;3.77;2.00;;;;;;;19.00;44.39;101072.98;;;;-59
2021/05/03 08:07:30;;;;;;;2.37;2.17;;;;;;;19.05;44.56;101064.70;;;;-51
2021/05/03 08:10:30;;;;;;;2.15;1.95;;;;;;;19.08;44.39;101064.20;;;;-52
2021/05/03 08:13:30;;;;;;;2.86;2.15;;;;;;;19.12;44.36;101071.75;;;;-51
2021/05/03 08:16:32;;;;;;;3.25;2.17;;;;;;;19.15;43.83;101064.72;;;;-50
2021/05/03 08:19:30;;;;;;;2.30;2.10;;;;;;;19.19;44.03;101065.27;;;;-51
2021/05/03 08:22:30;;;;;;;2.33;2.07;;;;;;;19.23;43.75;101063.56;;;;-51
2021/05/03 08:25:30;;;;;;;2.65;2.01;;;;;;;19.27;44.26;101061.75;;;;-60
2021/05/03 08:28:30;;;;;;;2.23;2.03;;;;;;;19.30;43.20;101061.63;;;;-52
2021/05/03 08:31:30;;;;;;;2.25;2.06;;;;;;;19.33;43.27;101058.85;;;;-53
2021/05/03 08:34:30;;;;;;;2.33;1.92;;;;;;;19.38;43.42;101063.34;;;;-46
2021/05/03 08:37:31;;;;;;;2.20;1.99;;;;;;;19.43;44.02;101060.97;;;;-48
2021/05/03 08:40:30;;;;;;;4.81;2.09;;;;;;;19.46;43.98;101063.04;;;;-48
2021/05/03 08:43:32;;;;;;;2.15;1.95;;;;;;;19.52;44.13;101064.77;;;;-46
2021/05/03 08:46:32;;;;;;;3.66;1.83;;;;;;;19.57;44.48;101060.47;;;;-47
2021/05/03 08:49:34;;;;;;;2.09;1.89;;;;;;;19.62;44.63;101058.58;;;;-51
2021/05/03 08:52:39;;;;;;;3.55;1.83;;;;;;;19.64;43.85;101060.41;;;;-49
2021/05/03 08:55:32;;;;;;;5.45;2.03;;;;;;;19.69;44.29;101052.28;;;;-48
2021/05/03 08:58:30;;;;;;;4.27;1.82;;;;;;;19.75;44.71;101047.73;;;;-45
2021/05/03 09:01:30;;;;;;;5.84;2.07;;;;;;;19.78;44.36;101042.27;;;;-52
2021/05/03 09:04:30;;;;;;;3.85;1.98;;;;;;;19.77;43.98;101044.27;;;;-54
2021/05/03 09:07:30;;;;;;;2.21;1.81;;;;;;;19.77;43.96;101039.39;;;;-54
2021/05/03 09:10:31;;;;;;;3.28;2.02;;;;;;;19.77;43.74;101038.91;;;;-54
2021/05/03 09:13:30;;;;;;;4.43;1.92;;;;;;;19.79;44.24;101030.23;;;;-49
2021/05/03 09:16:30;;;;;;;5.40;1.86;;;;;;;19.83;44.19;101024.68;;;;-48
2021/05/03 09:19:30;;;;;;;2.08;1.80;;;;;;;19.86;44.41;101024.41;;;;-47
2021/05/03 09:22:31;;;;;;;6.46;1.76;;;;;;;19.88;44.27;101023.63;;;;-54
2021/05/03 09:25:34;;;;;;;5.78;1.75;;;;;;;19.90;44.38;101022.52;;;;-51
2021/05/03 09:28:30;;;;;;;3.48;1.81;;;;;;;19.94;44.19;101014.81;;;;-51
2021/05/03 09:31:30;;;;;;;5.78;1.97;;;;;;;19.96;44.17;101010.45;;;;-47
2021/05/03 09:34:30;;;;;;;5.21;1.79;;;;;;;19.97;44.13;101010.80;;;;-47
2021/05/03 09:37:31;;;;;;;2.31;1.80;;;;;;;19.99;44.21;101009.94;;;;-45
2021/05/03 09:40:30;;;;;;;4.28;1.91;;;;;;;20.02;44.34;101007.77;;;;-46
2021/05/03 09:43:32;;;;;;;2.95;1.70;;;;;;;20.04;44.27;101009.50;;;;-54
2021/05/03 09:46:30;;;;;;;4.81;1.77;;;;;;;20.08;44.33;101003.85;;;;-51
2021/05/03 09:49:30;;;;;;;2.35;1.71;;;;;;;20.11;43.92;101003.06;;;;-48
2021/05/03 09:52:30;;;;;;;2.43;1.80;;;;;;;20.14;44.19;101000.03;;;;-49
2021/05/03 09:55:30;;;;;;;2.71;1.69;;;;;;;20.16;44.02;100995.01;;;;-51
2021/05/03 09:58:30;;;;;;;2.15;1.70;;;;;;;20.19;43.94;100996.33;;;;-46
2021/05/03 10:01:30;;;;;;;6.53;1.75;;;;;;;20.21;43.98;100989.27;;;;-47
2021/05/03 10:04:31;;;;;;;4.96;1.79;;;;;;;20.20;43.82;100985.13;;;;-52
2021/05/03 10:07:31;;;;;;;4.07;1.96;;;;;;;20.18;43.16;100977.94;;;;-58
2021/05/03 10:10:36;;;;;;;2.10;1.90;;;;;;;20.17;42.75;100984.86;;;;-57
2021/05/03 10:13:30;;;;;;;2.35;1.90;;;;;;;20.17;41.38;100987.11;;;;-52
2021/05/03 10:16:31;;;;;;;2.67;1.94;;;;;;;20.19;42.14;100986.41;;;;-48
2021/05/03 10:19:30;;;;;;;3.64;1.75;;;;;;;20.24;43.26;100985.74;;;;-56
2021/05/03 10:22:30;;;;;;;5.20;1.84;;;;;;;20.23;42.60;100982.90;;;;-56
2021/05/03 10:25:30;;;;;;;3.83;1.77;;;;;;;20.25;43.11;100980.80;;;;-62
2021/05/03 10:28:30;;;;;;;2.83;1.69;;;;;;;20.27;43.47;100977.30;;;;-57
2021/05/03 10:31:30;;;;;;;2.33;1.59;;;;;;;20.28;43.29;100972.93;;;;-56
2021/05/03 10:34:30;;;;;;;3.58;1.79;;;;;;;20.28;43.46;100967.48;;;;-56
2021/05/03 10:37:30;;;;;;;2.21;1.63;;;;;;;20.31;43.68;100972.22;;;;-58
2021/05/03 10:40:31;;;;;;;3.45;1.60;;;;;;;20.33;43.71;100975.25;;;;-51
2021/05/03 10:43:30;;;;;;;2.35;1.71;;;;;;;20.35;43.40;100974.47;;;;-56
2021/05/03 10:51:35;;;;;;;2.96;1.60;;;;;;;20.32;43.23;100961.17;;;;-53
2021/05/03 10:54:32;;;;;;;2.03;1.66;;;;;;;20.32;43.18;100956.38;;;;-55
2021/05/03 10:57:30;;;;;;;4.03;1.70;;;;;;;20.31;43.22;100954.48;;;;-55
2021/05/03 11:00:30;;;;;;;2.26;1.59;;;;;;;20.32;43.14;100945.87;;;;-51
2021/05/03 11:03:30;;;;;;;2.66;1.59;;;;;;;20.31;43.16;100938.27;;;;-51
2021/05/03 11:06:30;;;;;;;1.89;1.67;;;;;;;20.32;43.13;100936.11;;;;-51
2021/05/03 11:09:31;;;;;;;2.27;1.60;;;;;;;20.32;43.08;100927.64;;;;-51
2021/05/03 11:12:30;;;;;;;2.42;1.50;;;;;;;20.32;43.10;100929.76;;;;-52
2021/05/03 11:15:30;;;;;;;4.16;1.78;;;;;;;20.28;42.69;100918.23;;;;-51
2021/05/03 11:18:30;;;;;;;3.18;1.89;;;;;;;20.24;42.13;100916.73;;;;-51
2021/05/03 11:21:31;;;;;;;3.27;1.71;;;;;;;20.25;42.25;100915.37;;;;-54
2021/05/03 11:24:32;;;;;;;2.07;1.71;;;;;;;20.27;42.31;100915.28;;;;-49
2021/05/03 11:27:32;;;;;;;2.08;1.63;;;;;;;20.29;42.42;100912.38;;;;-48
2021/05/03 11:30:34;;;;;;;1.77;1.67;;;;;;;20.30;42.53;100910.77;;;;-49
2021/05/03 11:33:30;;;;;;;2.75;1.62;;;;;;;20.31;42.56;100907.19;;;;-48
2021/05/03 11:36:33;;;;;;;1.99;1.73;;;;;;;20.31;42.60;100903.36;;;;-49
2021/05/03 11:39:41;;;;;;;2.51;1.61;;;;;;;20.32;42.57;100905.66;;;;-48
2021/05/03 11:42:56;;;;;;;2.81;1.75;;;;;;;20.33;42.61;100892.47;;;;-48
2021/05/03 11:45:30;;;;;;;2.09;1.75;;;;;;;20.34;42.69;100886.97;;;;-49
2021/05/03 11:48:32;;;;;;;1.77;1.67;;;;;;;20.33;42.64;100883.20;;;;-48
2021/05/03 11:51:30;;;;;;;1.70;1.60;;;;;;;20.33;42.71;100879.61;;;;-48
2021/05/03 11:54:30;;;;;;;1.97;1.71;;;;;;;20.33;42.75;100878.06;;;;-49
2021/05/03 11:57:31;;;;;;;1.71;1.61;;;;;;;20.35;42.66;100880.77;;;;-55
2021/05/03 12:00:30;;;;;;;2.41;1.50;;;;;;;20.35;42.66;100873.94;;;;-54
2021/05/03 12:03:30;;;;;;;1.95;1.51;;;;;;;20.35;42.67;100869.12;;;;-55
2021/05/03 12:06:30;;;;;;;1.87;1.73;;;;;;;20.36;42.72;100874.53;;;;-54
2021/05/03 12:09:30;;;;;;;1.75;1.60;;;;;;;20.36;42.70;100871.16;;;;-54
2021/05/03 12:12:30;;;;;;;1.67;1.55;;;;;;;20.38;42.74;100868.53;;;;-54
2021/05/03 12:15:30;;;;;;;1.71;1.50;;;;;;;20.37;42.78;100861.41;;;;-55
2021/05/03 12:18:30;;;;;;;1.57;1.47;;;;;;;20.38;42.77;100857.62;;;;-52
2021/05/03 12:21:30;;;;;;;1.64;1.50;;;;;;;20.38;42.70;100858.59;;;;-48
2021/05/03 12:24:30;;;;;;;3.13;1.57;;;;;;;20.35;42.54;100851.31;;;;-57
2021/05/03 12:27:30;;;;;;;3.88;1.76;;;;;;;20.35;42.82;100833.80;;;;-47
2021/05/03 12:30:30;;;;;;;1.83;1.61;;;;;;;20.39;42.79;100838.72;;;;-48
2021/05/03 12:33:30;;;;;;;1.91;1.71;;;;;;;20.42;43.05;100833.96;;;;-51
2021/05/03 12:36:30;;;;;;;2.01;1.59;;;;;;;20.46;43.16;100828.52;;;;-50
2021/05/03 12:39:30;;;;;;;3.03;1.72;;;;;;;20.46;42.96;100829.98;;;;-48
2021/05/03 12:42:30;;;;;;;1.65;1.55;;;;;;;20.46;42.92;100819.23;;;;-48
2021/05/03 12:45:36;;;;;;;3.89;1.61;;;;;;;20.46;42.94;100815.03;;;;-51
2021/05/03 12:48:35;;;;;;;3.47;1.62;;;;;;;20.47;42.93;100810.79;;;;-53
2021/05/03 12:51:40;;;;;;;3.13;1.80;;;;;;;20.48;43.05;100800.20;;;;-59
2021/05/03 12:54:32;;;;;;;2.47;1.70;;;;;;;20.48;43.13;100796.56;;;;-58
2021/05/03 12:57:30;;;;;;;3.91;1.69;;;;;;;20.50;43.14;100790.45;;;;-47
2021/05/03 13:00:30;;;;;;;4.12;1.60;;;;;;;20.51;42.99;100787.45;;;;-51
2021/05/03 13:03:37;;;;;;;1.58;1.48;;;;;;;20.51;43.03;100774.59;;;;-53
2021/05/03 13:06:40;;;;;;;2.56;1.61;;;;;;;20.52;43.09;100775.83;;;;-52
2021/05/03 13:10:23;;;;;;;3.21;1.74;;;;;;;20.53;42.87;100763.53;;;;-51
2021/05/03 13:22:40;;;;;;;3.51;1.68;;;;;;;20.62;43.42;100759.30;;;;-52
2021/05/03 13:28:00;;;;;;;2.47;1.59;;;;;;;20.62;43.30;100752.95;;;;-52
2021/05/03 13:28:30;;;;;;;1.91;1.50;;;;;;;20.64;43.54;100753.94;;;;-54
2021/05/03 13:31:30;;;;;;;2.49;1.51;;;;;;;20.65;43.31;100751.59;;;;-59
2021/05/03 13:34:30;;;;;;;2.03;1.50;;;;;;;20.65;43.54;100746.47;;;;-58
2021/05/03 13:37:30;;;;;;;1.79;1.58;;;;;;;20.66;43.49;100744.99;;;;-59
2021/05/03 13:40:30;;;;;;;4.34;1.66;;;;;;;20.67;43.67;100737.27;;;;-47
2021/05/03 13:43:30;;;;;;;1.65;1.55;;;;;;;20.69;43.63;100732.78;;;;-53
2021/05/03 13:46:30;;;;;;;5.04;1.57;;;;;;;20.68;43.77;100732.70;;;;-49
2021/05/03 13:49:31;;;;;;;2.08;1.40;;;;;;;20.69;43.73;100718.56;;;;-50
2021/05/03 13:52:30;;;;;;;3.30;1.54;;;;;;;20.68;43.77;100719.44;;;;-48
2021/05/03 13:55:31;;;;;;;1.50;1.40;;;;;;;20.69;43.73;100713.34;;;;-47
2021/05/03 13:58:30;;;;;;;2.19;1.51;;;;;;;20.68;43.51;100703.39;;;;-45
2021/05/03 14:01:30;;;;;;;4.27;1.65;;;;;;;20.66;43.23;100701.42;;;;-48
2021/05/03 14:04:30;;;;;;;3.51;1.63;;;;;;;20.70;43.49;100699.49;;;;-57
2021/05/03 14:07:30;;;;;;;1.79;1.50;;;;;;;20.72;43.71;100695.44;;;;-55
2021/05/03 14:10:30;;;;;;;1.98;1.57;;;;;;;20.73;43.61;100684.67;;;;-50
2021/05/03 14:13:30;;;;;;;1.99;1.66;;;;;;;20.72;43.07;100687.53;;;;-50
2021/05/03 14:16:30;;;;;;;2.19;1.45;;;;;;;20.72;43.02;100688.27;;;;-50
2021/05/03 14:19:35;;;;;;;1.97;1.49;;;;;;;20.70;42.92;100682.14;;;;-50
2021/05/03 14:22:30;;;;;;;2.01;1.54;;;;;;;20.69;42.88;100684.43;;;;-50
2021/05/03 14:25:32;;;;;;;1.71;1.49;;;;;;;20.69;42.80;100674.96;;;;-50
2021/05/03 14:28:33;;;;;;;2.03;1.43;;;;;;;20.68;42.76;100670.08;;;;-50
2021/05/03 14:31:33;;;;;;;1.61;1.50;;;;;;;20.68;42.81;100664.71;;;;-50
2021/05/03 14:34:33;;;;;;;2.19;1.41;;;;;;;20.67;42.72;100659.66;;;;-50
2021/05/03 14:37:30;;;;;;;3.19;1.40;;;;;;;20.67;42.67;100653.78;;;;-50
2021/05/03 14:40:30;;;;;;;2.21;1.50;;;;;;;20.66;42.69;100655.41;;;;-50
2021/05/03 14:43:30;;;;;;;2.29;1.59;;;;;;;20.66;42.92;100653.54;;;;-58
2021/05/03 14:46:35;;;;;;;3.20;1.42;;;;;;;20.68;43.29;100652.66;;;;-53
2021/05/03 14:49:43;;;;;;;2.78;1.52;;;;;;;20.68;43.41;100645.00;;;;-44
2021/05/03 14:52:45;;;;;;;1.67;1.47;;;;;;;20.71;43.72;100640.36;;;;-45
2021/05/03 14:55:30;;;;;;;1.87;1.51;;;;;;;20.72;43.59;100639.97;;;;-48
2021/05/03 14:58:30;;;;;;;1.51;1.41;;;;;;;20.74;43.79;100632.48;;;;-52
2021/05/03 15:01:30;;;;;;;4.33;1.62;;;;;;;20.74;43.68;100628.25;;;;-62
2021/05/03 15:04:30;;;;;;;2.81;1.47;;;;;;;20.73;43.22;100621.91;;;;-55
2021/05/03 15:07:30;;;;;;;2.57;1.48;;;;;;;20.73;43.18;100615.94;;;;-56
2021/05/03 15:10:30;;;;;;;1.59;1.43;;;;;;;20.73;43.11;100615.69;;;;-59
2021/05/03 15:13:38;;;;;;;2.13;1.41;;;;;;;20.71;43.01;100611.55;;;;-58
2021/05/03 15:16:38;;;;;;;2.15;1.59;;;;;;;20.70;43.01;100609.42;;;;-57
2021/05/03 15:19:35;;;;;;;2.69;1.40;;;;;;;20.68;43.07;100604.20;;;;-58
2021/05/03 15:22:30;;;;;;;1.49;1.39;;;;;;;20.69;42.99;100607.69;;;;-57
2021/05/03 15:25:31;;;;;;;2.11;1.30;;;;;;;20.71;43.13;100606.80;;;;-53
2021/05/03 15:28:49;;;;;;;5.27;1.47;;;;;;;20.71;43.86;100601.05;;;;-51
2021/05/03 15:31:44;;;;;;;2.33;1.45;;;;;;;20.73;44.28;100602.41;;;;-48
2021/05/03 15:34:30;;;;;;;1.93;1.50;;;;;;;20.75;44.88;100601.14;;;;-51
2021/05/03 15:37:30;;;;;;;3.86;1.49;;;;;;;20.76;44.93;100600.08;;;;-49
2021/05/03 15:40:30;;;;;;;1.80;1.49;;;;;;;20.77;45.05;100592.77;;;;-50
2021/05/03 15:43:31;;;;;;;2.47;1.43;;;;;;;20.78;45.57;100594.06;;;;-52
2021/05/03 15:46:30;;;;;;;2.17;1.49;;;;;;;20.79;45.80;100588.67;;;;-53
2021/05/03 15:49:30;;;;;;;4.08;1.50;;;;;;;20.82;45.80;100590.98;;;;-52
2021/05/03 15:52:30;;;;;;;2.47;1.39;;;;;;;20.83;46.15;100586.08;;;;-46
2021/05/03 15:55:30;;;;;;;2.68;1.37;;;;;;;20.84;46.12;100579.17;;;;-47
2021/05/03 15:58:30;;;;;;;2.11;1.38;;;;;;;20.85;46.58;100569.95;;;;-51
2021/05/03 16:01:30;;;;;;;1.53;1.31;;;;;;;20.86;46.26;100561.91;;;;-59
2021/05/03 16:04:32;;;;;;;1.47;1.36;;;;;;;20.87;45.92;100557.42;;;;-54
2021/05/03 16:07:30;;;;;;;1.57;1.41;;;;;;;20.88;45.84;100559.23;;;;-54
2021/05/03 16:10:30;;;;;;;2.65;1.50;;;;;;;20.88;45.53;100550.91;;;;-48
2021/05/03 16:13:31;;;;;;;2.87;1.37;;;;;;;20.89;45.31;100551.22;;;;-46
2021/05/03 16:16:30;;;;;;;2.29;1.31;;;;;;;20.89;45.07;100552.53;;;;-46
2021/05/03 16:19:30;;;;;;;2.51;1.35;;;;;;;20.88;45.00;100546.11;;;;-47
2021/05/03 16:22:32;;;;;;;2.97;1.41;;;;;;;20.89;45.01;100534.94;;;;-50
2021/05/03 16:25:32;;;;;;;1.90;1.37;;;;;;;20.89;44.83;100532.82;;;;-53
2021/05/03 16:28:30;;;;;;;1.91;1.38;;;;;;;20.88;44.84;100522.08;;;;-53
2021/05/03 16:31:30;;;;;;;1.75;1.30;;;;;;;20.89;44.65;100522.23;;;;-58
2021/05/03 16:34:31;;;;;;;2.07;1.40;;;;;;;20.89;44.32;100515.63;;;;-57
2021/05/03 16:37:30;;;;;;;1.94;1.35;;;;;;;20.88;44.33;100512.63;;;;-57
2021/05/03 16:40:30;;;;;;;1.60;1.32;;;;;;;20.86;44.16;100512.21;;;;-57
2021/05/03 16:43:30;;;;;;;2.45;1.31;;;;;;;20.85;44.05;100509.10;;;;-57
2021/05/03 16:46:30;;;;;;;3.07;1.40;;;;;;;20.84;43.96;100505.29;;;;-57
2021/05/03 16:49:30;;;;;;;1.48;1.31;;;;;;;20.83;43.81;100498.84;;;;-53
2021/05/03 16:52:30;;;;;;;1.40;1.30;;;;;;;20.82;43.80;100499.01;;;;-63
2021/05/03 16:55:30;;;;;;;1.46;1.32;;;;;;;20.81;43.73;100492.08;;;;-57
2021/05/03 16:58:30;;;;;;;1.59;1.40;;;;;;;20.80;43.73;100484.67;;;;-57
2021/05/03 17:01:31;;;;;;;1.99;1.29;;;;;;;20.80;43.71;100482.72;;;;-57
2021/05/03 17:04:30;;;;;;;1.41;1.31;;;;;;;20.80;43.64;100483.05;;;;-57
2021/05/03 17:07:30;;;;;;;1.64;1.31;;;;;;;20.80;43.56;100484.19;;;;-57